sensor_id;sensor_type;location;lat;lon;timestamp;temperature;humidity
23769;DHT22;12064;50.890;5.424;2022-12-18T00:06:14;20.80;64.70
23769;DHT22;12064;50.890;5.424;2022-12-18T00:24:39;20.60;65.10
23769;DHT22;12064;50.890;5.424;2022-12-18T00:33:30;20.70;64.90
23769;DHT22;12064;50.890;5.424;2022-12-18T00:42:23;20.80;64.30
23769;DHT22;12064;50.890;5.424;2022-12-18T00:51:32;20.70;64.50
23769;DHT22;12064;50.890;5.424;2022-12-18T01:00:23;20.50;64.70
23769;DHT22;12064;50.890;5.424;2022-12-18T01:09:14;20.50;64.70
23769;DHT22;12064;50.890;5.424;2022-12-18T01:18:08;20.70;64.10
23769;DHT22;12064;50.890;5.424;2022-12-18T01:27:01;20.70;64.10
23769;DHT22;12064;50.890;5.424;2022-12-18T01:35:55;20.50;64.50
23769;DHT22;12064;50.890;5.424;2022-12-18T01:45:04;20.50;64.20
23769;DHT22;12064;50.890;5.424;2022-12-18T01:53:56;20.70;64.40
23769;DHT22;12064;50.890;5.424;2022-12-18T02:02:48;20.60;63.70
23769;DHT22;12064;50.890;5.424;2022-12-18T02:30:31;20.70;63.40
23769;DHT22;12064;50.890;5.424;2022-12-18T02:39:25;20.60;63.40
23769;DHT22;12064;50.890;5.424;2022-12-18T02:48:19;20.40;63.70
23769;DHT22;12064;50.890;5.424;2022-12-18T03:06:49;20.60;63.20
23769;DHT22;12064;50.890;5.424;2022-12-18T03:15:47;20.50;63.30
23769;DHT22;12064;50.890;5.424;2022-12-18T03:24:39;20.40;63.60
23769;DHT22;12064;50.890;5.424;2022-12-18T03:33:51;20.50;63.40
23769;DHT22;12064;50.890;5.424;2022-12-18T03:42:52;20.70;62.90
23769;DHT22;12064;50.890;5.424;2022-12-18T04:00:54;20.40;63.20
23769;DHT22;12064;50.890;5.424;2022-12-18T04:09:48;20.60;62.70
23769;DHT22;12064;50.890;5.424;2022-12-18T04:18:45;20.70;62.70
23769;DHT22;12064;50.890;5.424;2022-12-18T04:27:36;20.50;63.00
23769;DHT22;12064;50.890;5.424;2022-12-18T04:36:29;20.40;63.10
23769;DHT22;12064;50.890;5.424;2022-12-18T04:45:20;20.60;62.60
23769;DHT22;12064;50.890;5.424;2022-12-18T04:54:30;20.80;62.10
23769;DHT22;12064;50.890;5.424;2022-12-18T05:03:23;21.10;61.10
23769;DHT22;12064;50.890;5.424;2022-12-18T05:12:17;21.50;60.30
23769;DHT22;12064;50.890;5.424;2022-12-18T05:21:08;21.70;59.80
23769;DHT22;12064;50.890;5.424;2022-12-18T05:29:58;21.50;60.00
23769;DHT22;12064;50.890;5.424;2022-12-18T05:38:52;21.50;60.30
23769;DHT22;12064;50.890;5.424;2022-12-18T05:47:42;21.70;59.90
23769;DHT22;12064;50.890;5.424;2022-12-18T05:56:36;21.60;60.10
23769;DHT22;12064;50.890;5.424;2022-12-18T06:05:26;21.30;60.60
23769;DHT22;12064;50.890;5.424;2022-12-18T06:14:50;21.10;61.30
23769;DHT22;12064;50.890;5.424;2022-12-18T06:23:41;20.90;61.80
23769;DHT22;12064;50.890;5.424;2022-12-18T06:32:36;21.00;61.40
23769;DHT22;12064;50.890;5.424;2022-12-18T06:41:29;21.20;61.90
23769;DHT22;12064;50.890;5.424;2022-12-18T06:50:47;21.40;62.30
23769;DHT22;12064;50.890;5.424;2022-12-18T07:00:00;22.60;60.00
23769;DHT22;12064;50.890;5.424;2022-12-18T07:08:52;22.80;59.60
23769;DHT22;12064;50.890;5.424;2022-12-18T07:27:18;23.60;58.80
23769;DHT22;12064;50.890;5.424;2022-12-18T07:36:10;23.80;58.30
23769;DHT22;12064;50.890;5.424;2022-12-18T07:45:01;23.80;58.50
23769;DHT22;12064;50.890;5.424;2022-12-18T07:53:52;24.00;58.60
23769;DHT22;12064;50.890;5.424;2022-12-18T08:02:43;24.00;58.90
23769;DHT22;12064;50.890;5.424;2022-12-18T08:11:35;24.30;59.40
23769;DHT22;12064;50.890;5.424;2022-12-18T08:20:25;24.30;58.80
23769;DHT22;12064;50.890;5.424;2022-12-18T08:29:16;24.20;58.40
23769;DHT22;12064;50.890;5.424;2022-12-18T08:38:06;24.30;58.10
23769;DHT22;12064;50.890;5.424;2022-12-18T08:46:57;24.10;58.00
23769;DHT22;12064;50.890;5.424;2022-12-18T08:55:49;23.40;58.50
23769;DHT22;12064;50.890;5.424;2022-12-18T09:04:39;22.50;60.60
23769;DHT22;12064;50.890;5.424;2022-12-18T09:13:30;21.80;62.30
23769;DHT22;12064;50.890;5.424;2022-12-18T09:22:21;21.60;62.40
23769;DHT22;12064;50.890;5.424;2022-12-18T09:31:14;21.40;62.30
23769;DHT22;12064;50.890;5.424;2022-12-18T09:40:14;21.20;62.50
23769;DHT22;12064;50.890;5.424;2022-12-18T09:49:14;21.10;62.50
23769;DHT22;12064;50.890;5.424;2022-12-18T10:07:17;21.30;61.80
23769;DHT22;12064;50.890;5.424;2022-12-18T10:35:34;21.50;59.90
23769;DHT22;12064;50.890;5.424;2022-12-18T10:44:28;21.10;60.20
23769;DHT22;12064;50.890;5.424;2022-12-18T10:53:28;20.90;61.20
23769;DHT22;12064;50.890;5.424;2022-12-18T11:11:22;21.00;60.80
23769;DHT22;12064;50.890;5.424;2022-12-18T11:20:34;21.00;60.90
23769;DHT22;12064;50.890;5.424;2022-12-18T11:29:37;20.70;61.40
23769;DHT22;12064;50.890;5.424;2022-12-18T11:38:40;20.70;61.60
23769;DHT22;12064;50.890;5.424;2022-12-18T11:47:52;20.90;61.00
23769;DHT22;12064;50.890;5.424;2022-12-18T12:16:22;20.60;60.90
23769;DHT22;12064;50.890;5.424;2022-12-18T12:25:28;20.90;60.30
23769;DHT22;12064;50.890;5.424;2022-12-18T12:34:45;20.70;60.50
23769;DHT22;12064;50.890;5.424;2022-12-18T12:43:44;20.60;60.80
23769;DHT22;12064;50.890;5.424;2022-12-18T12:52:42;20.40;61.40
23769;DHT22;12064;50.890;5.424;2022-12-18T13:10:49;20.80;60.50
23769;DHT22;12064;50.890;5.424;2022-12-18T13:19:40;20.80;61.30
23769;DHT22;12064;50.890;5.424;2022-12-18T13:47:34;21.20;61.00
23769;DHT22;12064;50.890;5.424;2022-12-18T13:56:32;21.00;61.50
23769;DHT22;12064;50.890;5.424;2022-12-18T14:05:32;20.70;62.30
23769;DHT22;12064;50.890;5.424;2022-12-18T14:14:28;20.80;62.20
23769;DHT22;12064;50.890;5.424;2022-12-18T14:23:41;20.80;61.90
23769;DHT22;12064;50.890;5.424;2022-12-18T14:32:32;20.70;62.50
23769;DHT22;12064;50.890;5.424;2022-12-18T14:41:26;20.50;62.90
23769;DHT22;12064;50.890;5.424;2022-12-18T14:50:19;20.60;62.90
23769;DHT22;12064;50.890;5.424;2022-12-18T14:59:14;20.70;62.20
23769;DHT22;12064;50.890;5.424;2022-12-18T15:08:34;20.60;62.30
23769;DHT22;12064;50.890;5.424;2022-12-18T15:18:00;20.40;62.70
23769;DHT22;12064;50.890;5.424;2022-12-18T15:26:51;20.60;62.40
23769;DHT22;12064;50.890;5.424;2022-12-18T15:35:42;20.70;62.10
23769;DHT22;12064;50.890;5.424;2022-12-18T15:44:32;20.60;62.20
23769;DHT22;12064;50.890;5.424;2022-12-18T15:53:25;20.40;62.70
23769;DHT22;12064;50.890;5.424;2022-12-18T16:02:21;20.50;62.40
23769;DHT22;12064;50.890;5.424;2022-12-18T16:20:50;20.50;62.30
23769;DHT22;12064;50.890;5.424;2022-12-18T16:29:44;20.40;62.60
23769;DHT22;12064;50.890;5.424;2022-12-18T16:38:38;20.60;62.50
23769;DHT22;12064;50.890;5.424;2022-12-18T16:47:29;20.90;63.90
23769;DHT22;12064;50.890;5.424;2022-12-18T16:56:20;21.50;62.00
23769;DHT22;12064;50.890;5.424;2022-12-18T17:05:11;22.10;59.70
23769;DHT22;12064;50.890;5.424;2022-12-18T17:14:06;22.10;59.70
23769;DHT22;12064;50.890;5.424;2022-12-18T17:23:00;22.30;59.00
23769;DHT22;12064;50.890;5.424;2022-12-18T17:31:53;22.50;58.30
23769;DHT22;12064;50.890;5.424;2022-12-18T17:40:44;21.90;59.40
23769;DHT22;12064;50.890;5.424;2022-12-18T17:49:34;21.10;61.50
23769;DHT22;12064;50.890;5.424;2022-12-18T17:58:28;21.00;61.80
23769;DHT22;12064;50.890;5.424;2022-12-18T18:07:19;20.80;62.00
23769;DHT22;12064;50.890;5.424;2022-12-18T18:25:51;20.80;62.10
23769;DHT22;12064;50.890;5.424;2022-12-18T18:34:44;20.70;62.50
23769;DHT22;12064;50.890;5.424;2022-12-18T18:43:35;20.60;62.50
23769;DHT22;12064;50.890;5.424;2022-12-18T18:52:26;20.60;62.70
23769;DHT22;12064;50.890;5.424;2022-12-18T19:01:18;20.80;61.90
23769;DHT22;12064;50.890;5.424;2022-12-18T19:10:12;20.90;62.20
23769;DHT22;12064;50.890;5.424;2022-12-18T19:19:05;21.10;61.70
23769;DHT22;12064;50.890;5.424;2022-12-18T19:27:56;21.90;59.50
23769;DHT22;12064;50.890;5.424;2022-12-18T19:36:47;21.90;59.30
23769;DHT22;12064;50.890;5.424;2022-12-18T19:45:37;21.30;60.80
23769;DHT22;12064;50.890;5.424;2022-12-18T19:54:31;21.00;62.00
23769;DHT22;12064;50.890;5.424;2022-12-18T20:03:24;20.80;62.70
23769;DHT22;12064;50.890;5.424;2022-12-18T20:12:16;21.00;64.10
23769;DHT22;12064;50.890;5.424;2022-12-18T20:21:20;21.90;62.20
23769;DHT22;12064;50.890;5.424;2022-12-18T20:30:11;22.20;61.70
23769;DHT22;12064;50.890;5.424;2022-12-18T20:39:06;23.20;60.00
23769;DHT22;12064;50.890;5.424;2022-12-18T20:47:59;23.40;59.70
23769;DHT22;12064;50.890;5.424;2022-12-18T20:56:53;23.20;59.90
23769;DHT22;12064;50.890;5.424;2022-12-18T21:05:44;23.20;59.50
23769;DHT22;12064;50.890;5.424;2022-12-18T21:14:35;23.30;59.20
23769;DHT22;12064;50.890;5.424;2022-12-18T21:23:28;22.30;61.30
23769;DHT22;12064;50.890;5.424;2022-12-18T21:32:19;21.70;62.50
23769;DHT22;12064;50.890;5.424;2022-12-18T21:41:13;21.10;64.20
23769;DHT22;12064;50.890;5.424;2022-12-18T21:50:24;21.00;64.80
23769;DHT22;12064;50.890;5.424;2022-12-18T21:59:18;20.90;66.00
23769;DHT22;12064;50.890;5.424;2022-12-18T22:08:09;22.20;63.40
23769;DHT22;12064;50.890;5.424;2022-12-18T22:37:02;23.80;59.70
23769;DHT22;12064;50.890;5.424;2022-12-18T22:46:15;23.80;59.30
23769;DHT22;12064;50.890;5.424;2022-12-18T22:55:13;23.60;59.00
23769;DHT22;12064;50.890;5.424;2022-12-18T23:04:04;21.50;64.30
23769;DHT22;12064;50.890;5.424;2022-12-18T23:12:57;20.80;65.90
23769;DHT22;12064;50.890;5.424;2022-12-18T23:31:38;20.30;66.90
23769;DHT22;12064;50.890;5.424;2022-12-18T23:40:29;20.30;67.10
23769;DHT22;12064;50.890;5.424;2022-12-18T23:49:22;20.40;66.60
23769;DHT22;12064;50.890;5.424;2022-12-18T23:58:19;20.30;66.50
